createdAt,value
2023-05-15T00:01:16.996Z,96296.78
2023-05-15T00:03:22.108Z,96291.47
2023-05-15T00:05:27.236Z,96293.34
2023-05-15T00:07:32.735Z,96292.28
2023-05-15T00:09:40.263Z,96288.03
2023-05-15T00:11:45.021Z,96286.16
2023-05-15T00:13:49.923Z,96284.63
2023-05-15T00:15:54.767Z,96280.06
2023-05-15T00:17:59.588Z,96285.38
2023-05-15T00:20:05.448Z,96288.03
2023-05-15T00:22:10.471Z,96282.72
2023-05-15T00:24:15.629Z,96280.84
2023-05-15T00:26:23.594Z,96279.31
2023-05-15T00:28:28.335Z,96278.50
2023-05-15T00:30:34.146Z,96277.44
2023-05-15T00:32:39.318Z,96273.19
2023-05-15T00:34:44.663Z,96276.66
2023-05-15T00:36:49.601Z,96271.34
2023-05-15T00:38:54.445Z,96273.69
2023-05-15T00:40:59.685Z,96269.47
2023-05-15T00:43:08.043Z,96259.94
2023-05-15T00:45:17.095Z,96258.06
2023-05-15T00:47:23.544Z,96253.53
2023-05-15T00:49:31.038Z,96253.03
2023-05-15T00:51:36.218Z,96257.28
2023-05-15T00:53:41.373Z,96256.50
2023-05-15T00:55:48.964Z,96253.03
2023-05-15T00:57:56.519Z,96251.50
2023-05-15T01:00:07.239Z,96256.31
2023-05-15T01:02:12.491Z,96258.97
2023-05-15T01:04:17.278Z,96250.25
2023-05-15T01:06:22.227Z,96252.91
2023-05-15T01:08:35.639Z,96255.88
2023-05-15T01:10:40.546Z,96253.97
2023-05-15T01:12:48.974Z,96254.78
2023-05-15T01:14:54.121Z,96253.97
2023-05-15T01:17:02.144Z,96260.09
2023-05-15T01:19:08.041Z,96261.19
2023-05-15T01:21:43.374Z,96262.25
2023-05-15T01:24:01.866Z,96253.84
2023-05-15T01:26:36.620Z,96250.69
2023-05-15T01:28:49.108Z,96251.81
2023-05-15T01:30:59.055Z,96252.56
2023-05-15T01:33:09.525Z,96253.34
2023-05-15T01:35:19.412Z,96254.47
2023-05-15T01:37:27.636Z,96251.81
2023-05-15T01:39:36.797Z,96250.22
2023-05-15T01:41:49.750Z,96252.13
2023-05-15T01:44:02.086Z,96253.97
2023-05-15T01:46:09.374Z,96252.13
2023-05-15T01:48:16.820Z,96247.56
2023-05-15T01:50:24.285Z,96256.63
2023-05-15T01:52:33.811Z,96249.78
2023-05-15T01:54:39.933Z,96254.78
2023-05-15T01:56:45.527Z,96258.19
2023-05-15T01:58:52.316Z,96260.06
2023-05-15T02:01:00.544Z,96258.50
2023-05-15T02:03:07.973Z,96260.06
2023-05-15T02:05:13.042Z,96265.69
2023-05-15T02:07:18.214Z,96251.63
2023-05-15T02:09:23.709Z,96253.50
2023-05-15T02:11:28.638Z,96258.03
2023-05-15T02:13:34.016Z,96257.25
2023-05-15T02:15:39.785Z,96249.28
2023-05-15T02:17:47.479Z,96251.16
2023-05-15T02:19:52.334Z,96247.72
2023-05-15T02:21:57.543Z,96251.16
2023-05-15T02:24:02.400Z,96253.03
2023-05-15T02:26:16.194Z,96255.66
2023-05-15T02:28:28.402Z,96255.97
2023-05-15T02:30:46.078Z,96249.91
2023-05-15T02:33:02.560Z,96249.91
2023-05-15T02:35:20.781Z,96246.47
2023-05-15T02:37:31.453Z,96252.09
2023-05-15T02:39:37.287Z,96249.91
2023-05-15T02:41:43.070Z,96254.44
2023-05-15T02:43:49.470Z,96252.88
2023-05-15T02:45:55.582Z,96246.47
2023-05-15T02:48:04.308Z,96247.56
2023-05-15T02:50:10.842Z,96247.56
2023-05-15T02:52:16.191Z,96248.66
2023-05-15T02:54:21.857Z,96246.78
2023-05-15T02:56:26.625Z,96246.00
2023-05-15T02:58:31.539Z,96245.22
2023-05-15T03:00:36.493Z,96242.88
2023-05-15T03:02:41.450Z,96248.94
2023-05-15T03:04:49.286Z,96242.09
2023-05-15T03:06:54.085Z,96236.00
2023-05-15T03:08:58.908Z,96247.72
2023-05-15T03:11:03.822Z,96240.53
2023-05-15T03:13:08.562Z,96252.22
2023-05-15T03:15:13.715Z,96250.66
2023-05-15T03:17:18.560Z,96250.66
2023-05-15T03:19:23.567Z,96247.50
2023-05-15T03:21:31.145Z,96253.31
2023-05-15T03:23:37.830Z,96251.47
2023-05-15T03:25:42.995Z,96252.81
2023-05-15T03:27:47.887Z,96254.69
2023-05-15T03:29:52.794Z,96254.69
2023-05-15T03:31:57.793Z,96251.56
2023-05-15T03:34:02.931Z,96252.66
2023-05-15T03:36:08.820Z,96245.47
2023-05-15T03:38:16.180Z,96246.56
2023-05-15T03:40:21.220Z,96251.88
2023-05-15T03:42:26.891Z,96250.31
2023-05-15T03:44:32.492Z,96249.53
2023-05-15T03:46:37.470Z,96249.53
2023-05-15T03:48:42.260Z,96244.53
2023-05-15T03:50:47.901Z,96247.19
2023-05-15T03:52:52.945Z,96244.53
2023-05-15T03:55:01.488Z,96244.84
2023-05-15T03:57:06.986Z,96247.50
2023-05-15T03:59:11.785Z,96250.91
2023-05-15T04:01:16.546Z,96250.91
2023-05-15T04:03:21.842Z,96252.78
2023-05-15T04:05:27.019Z,96256.22
2023-05-15T04:07:32.692Z,96260.75
2023-05-15T04:09:37.744Z,96254.69
2023-05-15T04:11:46.904Z,96261.84
2023-05-15T04:13:52.019Z,96256.53
2023-05-15T04:15:56.877Z,96264.50
2023-05-15T04:18:01.836Z,96261.06
2023-05-15T04:20:09.163Z,96262.16
2023-05-15T04:22:14.096Z,96266.69
2023-05-15T04:24:18.881Z,96264.03
2023-05-15T04:26:24.242Z,96271.22
2023-05-15T04:28:31.830Z,96265.91
2023-05-15T04:30:36.850Z,96268.56
2023-05-15T04:32:42.987Z,96274.94
2023-05-15T04:34:48.112Z,96270.41
2023-05-15T04:36:53.146Z,96274.94
2023-05-15T04:38:58.405Z,96269.66
2023-05-15T04:41:03.223Z,96269.66
2023-05-15T04:43:08.569Z,96272.28
2023-05-15T04:45:16.461Z,96267.28
2023-05-15T04:47:21.362Z,96274.19
2023-05-15T04:49:26.095Z,96273.38
2023-05-15T04:51:31.166Z,96269.94
2023-05-15T04:53:36.026Z,96271.03
2023-05-15T04:55:40.864Z,96264.97
2023-05-15T04:57:45.749Z,96277.41
2023-05-15T04:59:50.688Z,96276.66
2023-05-15T05:01:58.254Z,96272.41
2023-05-15T05:04:03.220Z,96278.53
2023-05-15T05:06:08.394Z,96273.22
2023-05-15T05:08:13.337Z,96276.19
2023-05-15T05:10:18.410Z,96272.72
2023-05-15T05:12:23.663Z,96282.56
2023-05-15T05:14:29.727Z,96272.25
2023-05-15T05:16:35.100Z,96275.69
2023-05-15T05:18:42.991Z,96283.19
2023-05-15T05:20:47.995Z,96280.53
2023-05-15T05:22:52.829Z,96275.22
2023-05-15T05:24:57.794Z,96278.66
2023-05-15T05:27:02.825Z,96278.66
2023-05-15T05:29:07.888Z,96287.41
2023-05-15T05:31:12.859Z,96283.97
2023-05-15T05:33:17.911Z,96282.09
2023-05-15T05:35:25.775Z,96282.09
2023-05-15T05:37:30.738Z,96281.31
2023-05-15T05:39:35.792Z,96286.16
2023-05-15T05:41:40.589Z,96290.19
2023-05-15T05:43:45.447Z,96287.06
2023-05-15T05:45:50.895Z,96292.69
2023-05-15T05:47:56.018Z,96297.50
2023-05-15T05:50:00.907Z,96297.03
2023-05-15T05:52:13.171Z,96294.97
2023-05-15T05:54:18.552Z,96295.28
2023-05-15T05:56:23.901Z,96299.78
2023-05-15T05:58:28.776Z,96299.78
2023-05-15T06:00:33.760Z,96301.97
2023-05-15T06:02:39.029Z,96300.09
2023-05-15T06:04:44.215Z,96313.66
2023-05-15T06:06:50.309Z,96311.63
2023-05-15T06:08:58.259Z,96303.00
2023-05-15T06:11:03.388Z,96309.22
2023-05-15T06:13:08.531Z,96315.91
2023-05-15T06:15:14.726Z,96304.84
2023-05-15T06:17:19.549Z,96307.81
2023-05-15T06:19:24.848Z,96304.66
2023-05-15T06:21:29.628Z,96303.38
2023-05-15T06:23:34.528Z,96311.94
2023-05-15T06:25:42.140Z,96309.59
2023-05-15T06:27:47.745Z,96310.22
2023-05-15T06:29:52.739Z,96317.56
2023-05-15T06:31:57.749Z,96316.00
2023-05-15T06:34:03.081Z,96327.38
2023-05-15T06:36:09.062Z,96311.78
2023-05-15T06:38:13.843Z,96321.31
2023-05-15T06:40:18.931Z,96312.09
2023-05-15T06:42:27.238Z,96306.28
2023-05-15T06:44:33.649Z,96312.69
2023-05-15T06:46:38.362Z,96308.47
2023-05-15T06:48:43.113Z,96311.41
2023-05-15T06:50:48.493Z,96308.00
2023-05-15T06:52:54.873Z,96311.25
2023-05-15T06:54:59.700Z,96319.22
2023-05-15T06:57:04.399Z,96319.22
2023-05-15T06:59:11.813Z,96316.25
2023-05-15T07:01:16.825Z,96316.72
2023-05-15T07:03:21.714Z,96318.00
2023-05-15T07:05:26.804Z,96325.34
2023-05-15T07:07:31.753Z,96322.38
2023-05-15T07:09:36.718Z,96317.09
2023-05-15T07:11:42.398Z,96322.84
2023-05-15T07:13:47.421Z,96317.56
2023-05-15T07:15:55.013Z,96315.69
2023-05-15T07:18:00.222Z,96326.00
2023-05-15T07:20:06.291Z,96317.56
2023-05-15T07:22:11.154Z,96319.72
2023-05-15T07:24:15.891Z,96324.25
2023-05-15T07:26:32.516Z,96324.25
2023-05-15T07:28:41.213Z,96327.22
2023-05-15T07:30:46.378Z,96330.94
2023-05-15T07:32:53.903Z,96343.88
2023-05-15T07:34:59.050Z,96340.16
2023-05-15T07:37:03.880Z,96339.06
2023-05-15T07:39:08.868Z,96341.72
2023-05-15T07:41:13.859Z,96345.94
2023-05-15T07:43:18.930Z,96334.25
2023-05-15T07:45:24.150Z,96338.75
2023-05-15T07:47:29.168Z,96328.75
2023-05-15T07:49:36.922Z,96335.94
2023-05-15T07:51:41.834Z,96329.38
2023-05-15T07:53:47.029Z,96325.44
2023-05-15T07:55:52.208Z,96325.44
2023-05-15T07:57:57.021Z,96321.25
2023-05-15T08:00:04.858Z,96315.44
2023-05-15T08:02:16.484Z,96317.94
2023-05-15T08:04:21.516Z,96326.19
2023-05-15T08:06:29.360Z,96321.97
2023-05-15T08:08:34.261Z,96324.63
2023-05-15T08:10:39.026Z,96331.50
2023-05-15T08:12:46.678Z,96332.72
2023-05-15T08:14:52.414Z,96327.16
2023-05-15T08:16:57.523Z,96333.22
2023-05-15T08:19:05.000Z,96333.84
2023-05-15T08:21:11.413Z,96335.69
2023-05-15T08:23:19.105Z,96338.81
2023-05-15T08:25:24.110Z,96345.41
2023-05-15T08:27:29.219Z,96337.91
2023-05-15T08:29:34.240Z,96347.63
2023-05-15T08:31:39.189Z,96334.88
2023-05-15T08:33:44.348Z,96336.09
2023-05-15T08:35:49.213Z,96338.16
2023-05-15T08:37:54.277Z,96339.09
2023-05-15T08:40:01.750Z,96334.00
2023-05-15T08:42:13.965Z,96339.66
2023-05-15T08:44:19.032Z,96333.13
2023-05-15T08:46:25.189Z,96342.22
2023-05-15T08:48:32.955Z,96337.09
2023-05-15T08:50:41.477Z,96335.38
2023-05-15T08:52:47.934Z,96329.50
2023-05-15T08:54:53.506Z,96330.44
2023-05-15T08:57:01.397Z,96330.63
2023-05-15T08:59:06.956Z,96335.00
2023-05-15T09:01:13.205Z,96331.75
2023-05-15T09:03:20.223Z,96336.13
2023-05-15T09:05:25.559Z,96325.84
2023-05-15T09:07:30.772Z,96320.59
2023-05-15T09:09:37.537Z,96315.00
2023-05-15T09:11:46.737Z,96316.28
2023-05-15T09:13:54.055Z,96314.59
2023-05-15T09:15:58.990Z,96312.13
2023-05-15T09:18:05.494Z,96310.28
2023-05-15T09:20:27.206Z,96310.28
2023-05-15T09:22:37.673Z,96309.47
2023-05-15T09:24:43.120Z,96300.41
2023-05-15T09:26:50.252Z,96305.09
2023-05-15T09:29:06.046Z,96298.41
2023-05-15T09:31:10.771Z,96281.47
2023-05-15T09:33:15.665Z,96284.72
2023-05-15T09:35:35.818Z,96280.00
2023-05-15T09:37:40.699Z,96283.41
2023-05-15T09:39:46.948Z,96278.38
2023-05-15T09:41:51.757Z,96291.19
2023-05-15T09:43:59.174Z,96278.28
2023-05-15T09:46:04.072Z,96289.06
2023-05-15T09:48:12.113Z,96287.28
2023-05-15T09:50:24.335Z,96288.03
2023-05-15T09:52:30.732Z,96287.31
2023-05-15T09:54:35.503Z,96286.94
2023-05-15T09:56:40.238Z,96282.47
2023-05-15T09:58:58.882Z,96286.84
2023-05-15T10:01:04.458Z,96286.28
2023-05-15T10:03:11.187Z,96286.13
2023-05-15T10:05:16.122Z,96286.09
2023-05-15T10:07:30.680Z,96289.81
2023-05-15T10:09:35.554Z,96284.59
2023-05-15T10:11:41.654Z,96281.16
2023-05-15T10:13:46.584Z,96285.97
2023-05-15T10:15:55.550Z,96279.16
2023-05-15T10:18:00.868Z,96273.50
2023-05-15T10:20:07.281Z,96266.63
2023-05-15T10:22:13.963Z,96259.59
2023-05-15T10:24:21.570Z,96273.94
2023-05-15T10:26:31.873Z,96268.06
2023-05-15T10:28:38.997Z,96263.25
2023-05-15T10:30:45.812Z,96261.13
2023-05-15T10:32:53.816Z,96256.78
2023-05-15T10:35:00.038Z,96254.03
2023-05-15T10:37:05.395Z,96251.22
2023-05-15T10:39:11.182Z,96242.78
2023-05-15T10:41:20.241Z,96238.44
2023-05-15T10:43:25.966Z,96240.66
2023-05-15T10:45:32.157Z,96245.56
2023-05-15T10:47:37.798Z,96237.97
2023-05-15T10:49:45.125Z,96245.31
2023-05-15T10:51:49.935Z,96243.69
2023-05-15T10:53:54.928Z,96247.78
2023-05-15T10:55:59.728Z,96240.47
2023-05-15T10:58:04.523Z,96236.25
2023-05-15T11:00:29.086Z,96234.69
2023-05-15T11:02:41.006Z,96230.47
2023-05-15T11:04:49.098Z,96238.16
2023-05-15T11:07:14.042Z,96231.31
2023-05-15T11:09:43.061Z,96224.16
2023-05-15T11:11:58.082Z,96221.41
2023-05-15T11:14:18.020Z,96221.06
2023-05-15T11:16:58.674Z,96213.66
2023-05-15T11:19:03.931Z,96212.75
2023-05-15T11:21:13.313Z,96213.38
2023-05-15T11:23:19.075Z,96209.00
2023-05-15T11:25:33.000Z,96202.28
2023-05-15T11:27:42.651Z,96198.91
2023-05-15T11:30:09.006Z,96191.31
2023-05-15T11:32:35.458Z,96190.13
2023-05-15T11:34:44.744Z,96185.34
2023-05-15T11:36:52.193Z,96180.69
2023-05-15T11:38:56.987Z,96176.03
2023-05-15T11:41:03.929Z,96176.28
2023-05-15T11:43:10.775Z,96177.66
2023-05-15T11:45:15.518Z,96187.03
2023-05-15T11:47:21.024Z,96181.13
2023-05-15T11:49:28.001Z,96178.69
2023-05-15T11:51:33.006Z,96182.41
2023-05-15T11:53:41.790Z,96177.31
2023-05-15T11:55:47.266Z,96171.09
2023-05-15T11:57:52.452Z,96164.88
2023-05-15T11:59:57.674Z,96166.66
2023-05-15T12:02:02.683Z,96161.47
2023-05-15T12:04:15.767Z,96172.41
2023-05-15T12:06:21.225Z,96164.28
2023-05-15T12:08:26.102Z,96169.88
2023-05-15T12:10:34.308Z,96175.44
2023-05-15T12:12:41.665Z,96162.44
2023-05-15T12:14:46.526Z,96167.34
2023-05-15T12:16:54.565Z,96158.19
2023-05-15T12:19:00.078Z,96156.31
2023-05-15T12:21:06.085Z,96168.13
2023-05-15T12:23:11.385Z,96182.56
2023-05-15T12:25:18.307Z,96187.50
2023-05-15T12:27:26.893Z,96195.84
2023-05-15T12:29:32.263Z,96203.44
2023-05-15T12:31:38.644Z,96207.09
2023-05-15T12:33:43.858Z,96223.34
2023-05-15T12:36:01.283Z,96218.88
2023-05-15T12:38:07.224Z,96210.66
2023-05-15T12:40:14.698Z,96212.00
2023-05-15T12:42:19.535Z,96209.09
2023-05-15T12:44:29.563Z,96214.56
2023-05-15T12:46:35.073Z,96214.34
2023-05-15T12:48:40.862Z,96209.91
2023-05-15T12:50:48.208Z,96206.44
2023-05-15T12:52:57.177Z,96199.63
2023-05-15T12:55:03.874Z,96206.63
2023-05-15T12:57:08.828Z,96204.06
2023-05-15T12:59:13.796Z,96202.41
2023-05-15T13:01:21.258Z,96209.47
2023-05-15T13:03:28.083Z,96205.56
2023-05-15T13:05:35.584Z,96200.91
2023-05-15T13:07:41.291Z,96203.41
2023-05-15T13:09:47.614Z,96201.88
2023-05-15T13:11:53.147Z,96197.66
2023-05-15T13:13:58.122Z,96191.88
2023-05-15T13:16:02.876Z,96197.22
2023-05-15T13:18:12.586Z,96191.88
2023-05-15T13:20:17.727Z,96187.31
2023-05-15T13:22:22.486Z,96184.31
2023-05-15T13:24:27.468Z,96186.66
2023-05-15T13:26:32.671Z,96185.56
2023-05-15T13:28:37.590Z,96186.31
2023-05-15T13:30:44.152Z,96193.22
2023-05-15T13:32:49.592Z,96200.75
2023-05-15T13:34:58.910Z,96208.31
2023-05-15T13:37:03.902Z,96206.31
2023-05-15T13:39:08.701Z,96218.41
2023-05-15T13:41:13.448Z,96220.28
2023-05-15T13:43:18.400Z,96215.63
2023-05-15T13:45:23.306Z,96223.16
2023-05-15T13:47:28.222Z,96222.72
2023-05-15T13:49:33.009Z,96235.56
2023-05-15T13:51:40.383Z,96219.91
2023-05-15T13:53:45.136Z,96225.25
2023-05-15T13:55:50.329Z,96216.81
2023-05-15T13:57:55.212Z,96219.31
2023-05-15T14:00:00.170Z,96223.44
2023-05-15T14:02:05.022Z,96224.09
2023-05-15T14:04:09.788Z,96227.88
2023-05-15T14:06:14.689Z,96225.06
2023-05-15T14:08:22.075Z,96229.28
2023-05-15T14:10:27.279Z,96230.38
2023-05-15T14:12:32.586Z,96232.28
2023-05-15T14:14:37.326Z,96224.63
2023-05-15T14:16:42.130Z,96227.63
2023-05-15T14:18:46.907Z,96231.69
2023-05-15T14:20:52.652Z,96226.69
2023-05-15T14:22:57.474Z,96219.81
2023-05-15T14:25:05.243Z,96227.78
2023-05-15T14:27:10.058Z,96220.59
2023-05-15T14:29:15.673Z,96219.81
2023-05-15T14:31:20.656Z,96225.94
2023-05-15T14:33:26.806Z,96220.28
2023-05-15T14:35:31.838Z,96217.63
2023-05-15T14:37:37.026Z,96220.28
2023-05-15T14:39:42.517Z,96216.50
2023-05-15T14:41:50.218Z,96215.28
2023-05-15T14:43:55.223Z,96214.47
2023-05-15T14:46:00.085Z,96226.59
2023-05-15T14:48:04.961Z,96224.25
2023-05-15T14:50:11.077Z,96216.88
2023-05-15T14:52:15.936Z,96227.09
2023-05-15T14:54:20.781Z,96220.84
2023-05-15T14:56:26.035Z,96226.84
2023-05-15T14:58:33.614Z,96235.16
2023-05-15T15:00:38.328Z,96233.47
2023-05-15T15:02:43.406Z,96235.97
2023-05-15T15:04:48.467Z,96242.75
2023-05-15T15:06:56.125Z,96247.59
2023-05-15T15:09:00.909Z,96249.81
2023-05-15T15:11:06.702Z,96252.81
2023-05-15T15:13:13.832Z,96260.97
2023-05-15T15:15:21.573Z,96264.56
2023-05-15T15:17:26.311Z,96277.75
2023-05-15T15:19:31.187Z,96266.97
2023-05-15T15:21:36.728Z,96262.59
2023-05-15T15:23:41.761Z,96267.47
2023-05-15T15:25:46.639Z,96251.38
2023-05-15T15:27:51.917Z,96245.75
2023-05-15T15:29:56.719Z,96239.72
2023-05-15T15:32:04.169Z,96245.06
2023-05-15T15:34:09.225Z,96252.00
2023-05-15T15:36:14.051Z,96253.09
2023-05-15T15:38:18.810Z,96257.59
2023-05-15T15:40:24.576Z,96254.94
2023-05-15T15:42:30.559Z,96255.59
2023-05-15T15:44:36.492Z,96260.47
2023-05-15T15:46:41.269Z,96252.34
2023-05-15T15:48:48.665Z,96248.75
2023-05-15T15:50:54.463Z,96254.72
2023-05-15T15:52:59.466Z,96247.34
2023-05-15T15:55:04.305Z,96246.56
2023-05-15T15:57:09.033Z,96257.22
2023-05-15T15:59:13.723Z,96246.56
2023-05-15T16:01:18.637Z,96250.81
2023-05-15T16:03:24.454Z,96247.06
2023-05-15T16:05:32.025Z,96244.53
2023-05-15T16:07:37.458Z,96241.22
2023-05-15T16:09:42.305Z,96237.94
2023-05-15T16:11:47.124Z,96239.50
2023-05-15T16:13:52.075Z,96242.59
2023-05-15T16:15:57.061Z,96246.19
2023-05-15T16:18:01.965Z,96244.31
2023-05-15T16:20:07.416Z,96250.44
2023-05-15T16:22:14.965Z,96242.44
2023-05-15T16:24:20.030Z,96242.13
2023-05-15T16:26:24.856Z,96236.28
2023-05-15T16:28:29.744Z,96240.69
2023-05-15T16:32:45.504Z,96245.81
2023-05-15T16:34:50.667Z,96254.88
2023-05-15T16:36:55.478Z,96247.69
2023-05-15T16:39:05.173Z,96254.88
2023-05-15T16:41:10.332Z,96253.00
2023-05-15T16:43:17.047Z,96253.47
2023-05-15T16:45:21.939Z,96264.09
2023-05-15T16:47:26.979Z,96264.09
2023-05-15T16:49:31.765Z,96264.91
2023-05-15T16:51:36.881Z,96263.00
2023-05-15T16:53:41.879Z,96271.91
2023-05-15T16:55:49.747Z,96266.13
2023-05-15T16:57:54.591Z,96275.81
2023-05-15T16:59:59.714Z,96276.59
2023-05-15T17:02:04.615Z,96281.28
2023-05-15T17:04:10.162Z,96284.06
2023-05-15T17:06:15.822Z,96300.19
2023-05-15T17:08:20.777Z,96291.56
2023-05-15T17:10:26.203Z,96306.56
2023-05-15T17:12:33.948Z,96291.41
2023-05-15T17:14:39.068Z,96299.81
2023-05-15T17:16:45.785Z,96296.06
2023-05-15T17:18:50.744Z,96302.63
2023-05-15T17:20:55.777Z,96299.34
2023-05-15T17:23:00.571Z,96297.16
2023-05-15T17:25:07.198Z,96306.38
2023-05-15T17:27:12.337Z,96310.59
2023-05-15T17:29:19.960Z,96310.28
2023-05-15T17:31:25.236Z,96314.16
2023-05-15T17:33:30.418Z,96309.31
2023-05-15T17:35:35.463Z,96318.09
2023-05-15T17:37:40.561Z,96317.75
2023-05-15T17:39:45.422Z,96316.66
2023-05-15T17:41:50.565Z,96314.78
2023-05-15T17:43:55.457Z,96320.91
2023-05-15T17:46:03.836Z,96321.66
2023-05-15T17:48:09.306Z,96325.09
2023-05-15T17:50:15.183Z,96330.44
2023-05-15T17:52:20.094Z,96332.31
2023-05-15T17:54:25.239Z,96331.53
2023-05-15T17:56:30.328Z,96333.41
2023-05-15T17:58:35.237Z,96339.53
2023-05-15T18:00:40.389Z,96341.41
2023-05-15T18:02:47.933Z,96341.41
2023-05-15T18:04:52.814Z,96349.06
2023-05-15T18:06:57.747Z,96350.63
2023-05-15T18:09:02.670Z,96345.31
2023-05-15T18:11:17.593Z,96351.41
2023-05-15T18:13:26.491Z,96344.53
2023-05-15T18:15:32.073Z,96357.84
2023-05-15T18:17:37.032Z,96359.72
2023-05-15T18:19:45.052Z,96357.06
2023-05-15T18:21:50.084Z,96357.38
2023-05-15T18:23:55.256Z,96365.38
2023-05-15T18:26:00.151Z,96361.94
2023-05-15T18:28:05.105Z,96364.91
2023-05-15T18:30:11.939Z,96366.78
2023-05-15T18:32:16.928Z,96364.44
2023-05-15T18:34:22.097Z,96369.00
2023-05-15T18:36:29.979Z,96365.88
2023-05-15T18:38:35.101Z,96364.31
2023-05-15T18:40:40.178Z,96355.56
2023-05-15T18:42:44.935Z,96362.75
2023-05-15T18:44:49.939Z,96362.28
2023-05-15T18:46:55.261Z,96363.38
2023-05-15T18:49:00.169Z,96359.47
2023-05-15T18:51:05.081Z,96356.34
2023-05-15T18:53:12.824Z,96351.34
2023-05-15T18:55:17.609Z,96355.84
2023-05-15T18:57:22.699Z,96359.97
2023-05-15T18:59:27.640Z,96357.63
2023-05-15T19:01:32.798Z,96368.59
2023-05-15T19:03:39.183Z,96366.53
2023-05-15T19:05:44.193Z,96369.53
2023-05-15T19:07:48.986Z,96375.16
2023-05-15T19:09:56.611Z,96367.50
2023-05-15T19:12:03.457Z,96375.47
2023-05-15T19:14:08.963Z,96375.03
2023-05-15T19:16:13.922Z,96367.38
2023-05-15T19:18:19.317Z,96378.00
2023-05-15T19:20:24.263Z,96373.00
2023-05-15T19:22:29.203Z,96372.22
2023-05-15T19:24:34.338Z,96366.13
2023-05-15T19:26:41.968Z,96374.09
2023-05-15T19:28:46.902Z,96370.66
2023-05-15T19:30:51.781Z,96372.84
2023-05-15T19:32:56.743Z,96380.84
2023-05-15T19:35:02.048Z,96378.50
2023-05-15T19:37:07.848Z,96378.81
2023-05-15T19:39:12.919Z,96385.22
2023-05-15T19:41:17.776Z,96383.69
2023-05-15T19:43:25.303Z,96385.53
2023-05-15T19:45:30.706Z,96392.75
2023-05-15T19:47:35.626Z,96399.16
2023-05-15T19:49:40.608Z,96393.06
2023-05-15T19:51:45.483Z,96399.47
2023-05-15T19:53:50.304Z,96401.38
2023-05-15T19:55:55.933Z,96403.25
2023-05-15T19:58:01.193Z,96398.72
2023-05-15T20:00:10.628Z,96402.47
2023-05-15T20:02:15.620Z,96394.47
2023-05-15T20:04:21.192Z,96401.69
2023-05-15T20:06:26.305Z,96393.72
2023-05-15T20:08:31.958Z,96399.34
2023-05-15T20:10:36.812Z,96403.88
2023-05-15T20:12:41.745Z,96397.00
2023-05-15T20:14:52.409Z,96397.78
2023-05-15T20:17:00.037Z,96399.66
2023-05-15T20:19:06.243Z,96397.78
2023-05-15T20:21:11.134Z,96401.53
2023-05-15T20:23:15.878Z,96393.53
2023-05-15T20:25:22.923Z,96398.09
2023-05-15T20:27:29.259Z,96394.34
2023-05-15T20:29:34.167Z,96399.66
2023-05-15T20:31:40.800Z,96400.44
2023-05-15T20:33:48.405Z,96400.75
2023-05-15T20:35:54.224Z,96393.88
2023-05-15T20:37:59.297Z,96388.53
2023-05-15T20:40:05.691Z,96399.19
2023-05-15T20:42:10.969Z,96394.97
2023-05-15T20:44:16.175Z,96398.72
2023-05-15T20:46:21.417Z,96391.06
2023-05-15T20:48:26.435Z,96394.50
2023-05-15T20:50:33.941Z,96398.56
2023-05-15T20:52:39.218Z,96396.22
2023-05-15T20:54:44.103Z,96403.88
2023-05-15T20:56:48.972Z,96398.88
2023-05-15T20:58:54.302Z,96398.44
2023-05-15T21:01:01.173Z,96395.78
2023-05-15T21:03:06.415Z,96395.78
2023-05-15T21:05:12.251Z,96399.53
2023-05-15T21:07:20.002Z,96390.00
2023-05-15T21:09:25.180Z,96387.66
2023-05-15T21:11:32.038Z,96392.16
2023-05-15T21:13:37.398Z,96400.94
2023-05-15T21:15:42.309Z,96391.72
2023-05-15T21:17:47.595Z,96392.81
2023-05-15T21:19:52.720Z,96387.50
2023-05-15T21:21:57.478Z,96393.13
2023-05-15T21:24:06.118Z,96390.00
2023-05-15T21:26:11.094Z,96397.50
2023-05-15T21:28:15.934Z,96394.38
2023-05-15T21:30:20.922Z,96392.81
2023-05-15T21:32:26.128Z,96395.78
2023-05-15T21:34:32.492Z,96392.69
2023-05-15T21:36:38.433Z,96399.84
2023-05-15T21:38:43.309Z,96388.28
2023-05-15T21:40:50.761Z,96387.06
2023-05-15T21:42:55.658Z,96391.56
2023-05-15T21:45:00.730Z,96390.03
2023-05-15T21:47:05.806Z,96390.66
2023-05-15T21:49:10.899Z,96398.16
2023-05-15T21:51:15.721Z,96388.59
2023-05-15T21:53:20.586Z,96394.22
2023-05-15T21:55:25.529Z,96394.88
2023-05-15T21:57:33.133Z,96395.19
2023-05-15T21:59:38.080Z,96394.41
2023-05-15T22:01:44.439Z,96393.91
2023-05-15T22:03:49.407Z,96396.56
2023-05-15T22:05:54.644Z,96400.66
2023-05-15T22:07:59.679Z,96396.44
2023-05-15T22:10:04.974Z,96397.53
2023-05-15T22:12:10.476Z,96402.06
2023-05-15T22:14:18.093Z,96397.34
2023-05-15T22:16:23.333Z,96400.31
2023-05-15T22:18:29.253Z,96404.84
2023-05-15T22:20:34.536Z,96408.28
2023-05-15T22:22:40.170Z,96407.81
2023-05-15T22:24:46.045Z,96400.94
2023-05-15T22:26:51.046Z,96411.56
2023-05-15T22:28:57.114Z,96410.00
2023-05-15T22:31:04.730Z,96408.44
2023-05-15T22:33:09.716Z,96415.31
2023-05-15T22:35:14.664Z,96419.88
2023-05-15T22:37:19.567Z,96410.31
2023-05-15T22:39:24.580Z,96416.72
2023-05-15T22:41:29.391Z,96412.81
2023-05-15T22:43:34.340Z,96413.13
2023-05-15T22:45:39.250Z,96410.00
2023-05-15T22:47:47.313Z,96411.09
2023-05-15T22:49:52.265Z,96414.06
2023-05-15T22:51:58.331Z,96407.16
2023-05-15T22:54:03.370Z,96405.31
2023-05-15T22:56:09.190Z,96414.06
2023-05-15T22:58:14.040Z,96411.41
2023-05-15T23:00:20.325Z,96401.84
2023-05-15T23:02:25.422Z,96404.19
2023-05-15T23:04:32.926Z,96406.84
2023-05-15T23:06:37.922Z,96405.75
2023-05-15T23:08:42.843Z,96415.63
2023-05-15T23:10:47.630Z,96407.97
2023-05-15T23:12:52.790Z,96410.63
2023-05-15T23:14:57.557Z,96410.94
2023-05-15T23:17:02.425Z,96407.47
2023-05-15T23:19:07.260Z,96402.16
2023-05-15T23:21:14.937Z,96403.09
2023-05-15T23:23:19.949Z,96403.91
2023-05-15T23:25:24.985Z,96403.91
2023-05-15T23:27:29.759Z,96403.41
2023-05-15T23:29:34.733Z,96401.84
2023-05-15T23:31:39.679Z,96396.53
2023-05-15T23:33:44.752Z,96395.75
2023-05-15T23:35:49.654Z,96393.09
2023-05-15T23:37:57.342Z,96399.81
2023-05-15T23:40:02.372Z,96399.81
2023-05-15T23:42:10.101Z,96407.00
2023-05-15T23:44:14.874Z,96403.56
2023-05-15T23:46:20.353Z,96397.47
2023-05-15T23:48:25.267Z,96398.56
2023-05-15T23:50:30.118Z,96387.94
2023-05-15T23:52:34.974Z,96390.59
2023-05-15T23:54:42.790Z,96388.25
2023-05-15T23:56:47.561Z,96394.81
2023-05-15T23:58:52.530Z,96399.66
